Time;durP1;ratioP1;P1;durP2;ratioP2;P2;SDS_P1;SDS_P2;PMS_P1;PMS_P2;Temp;Humidity;BMP_temperature;BMP_pressure;BME280_temperature;BME280_humidity;BME280_pressure;Samples;Min_cycle;Max_cycle;Signal;HPM_P1;HPM_P2
2023/04/14 00:01:00;;;;;;;9.13;2.20;;;6.50;1.00;;;;;;5019381;28;20461;-80
2023/04/14 00:03:28;;;;;;;3.90;1.80;;;6.40;1.00;;;;;;5020022;28;20461;-80
2023/04/14 00:05:55;;;;;;;5.43;2.13;;;6.40;1.00;;;;;;5020571;28;20556;-81
2023/04/14 00:08:22;;;;;;;3.40;1.60;;;6.40;1.00;;;;;;5020464;28;20472;-81
2023/04/14 00:10:48;;;;;;;7.17;1.93;;;6.30;1.00;;;;;;5022214;28;20945;-80
2023/04/14 00:13:15;;;;;;;5.70;2.10;;;6.30;1.00;;;;;;5021440;28;20452;-81
2023/04/14 00:15:42;;;;;;;8.83;2.80;;;6.30;1.00;;;;;;5021360;28;20496;-81
2023/04/14 00:18:09;;;;;;;2.60;1.40;;;6.30;1.00;;;;;;5019384;28;20457;-81
2023/04/14 00:20:37;;;;;;;3.60;2.23;;;6.20;1.00;;;;;;5018904;28;20461;-80
2023/04/14 00:23:04;;;;;;;6.30;2.00;;;6.10;1.00;;;;;;5018796;28;20464;-81
2023/04/14 00:25:30;;;;;;;3.30;1.77;;;6.10;1.00;;;;;;5019339;28;20483;-80
2023/04/14 00:27:57;;;;;;;8.83;1.93;;;6.10;1.00;;;;;;5019575;28;20821;-80
2023/04/14 00:30:24;;;;;;;6.30;2.10;;;6.10;1.00;;;;;;5019737;28;20547;-81
2023/04/14 00:32:51;;;;;;;5.43;1.77;;;6.00;1.00;;;;;;5017706;28;20461;-81
2023/04/14 00:35:18;;;;;;;5.77;1.60;;;5.90;1.00;;;;;;5018102;28;20488;-80
2023/04/14 00:37:46;;;;;;;3.50;1.97;;;5.90;1.00;;;;;;5018647;28;20463;-80
2023/04/14 00:40:13;;;;;;;4.40;1.37;;;5.90;1.00;;;;;;5017911;28;20988;-80
2023/04/14 00:42:43;;;;;;;7.43;3.03;;;5.80;3.20;;;;;;5017071;28;20467;-81
2023/04/14 00:45:11;;;;;;;5.77;1.80;;;5.80;11.40;;;;;;5001253;28;20452;-81
2023/04/14 00:47:40;;;;;;;7.63;2.20;;;5.80;15.20;;;;;;5017477;28;20442;-81
2023/04/14 00:50:07;;;;;;;5.13;2.00;;;5.80;21.10;;;;;;5017776;28;20459;-81
2023/04/14 00:52:37;;;;;;;4.37;1.87;;;5.80;30.40;;;;;;5016798;28;20969;-81
2023/04/14 00:55:06;;;;;;;5.77;2.00;;;5.80;35.70;;;;;;5017575;28;20581;-81
2023/04/14 00:57:33;;;;;;;3.93;1.57;;;5.80;47.50;;;;;;5017514;28;20450;-81
2023/04/14 01:00:01;;;;;;;3.73;2.00;;;5.80;46.20;;;;;;5017587;28;20467;-81
2023/04/14 01:02:28;;;;;;;4.43;2.00;;;5.80;49.70;;;;;;5017795;28;20523;-81
2023/04/14 01:04:55;;;;;;;8.20;1.87;;;5.70;41.50;;;;;;5019531;28;20515;-81
2023/04/14 01:07:24;;;;;;;3.67;1.77;;;5.70;45.50;;;;;;5027729;28;20535;-81
2023/04/14 01:09:52;;;;;;;7.33;1.80;;;5.70;52.90;;;;;;5027695;28;20568;-81
2023/04/14 01:12:34;;;;;;;3.40;1.60;;;5.70;53.80;;;;;;5027378;28;20467;-81
2023/04/14 01:15:09;;;;;;;2.90;1.60;;;5.60;64.40;;;;;;5019509;28;21151;-81
2023/04/14 01:17:43;;;;;;;5.53;1.80;;;5.60;61.70;;;;;;5027892;28;20450;-81
2023/04/14 01:20:18;;;;;;;3.70;1.93;;;5.60;54.10;;;;;;5024462;28;20422;-80
2023/04/14 01:22:49;;;;;;;9.33;1.90;;;5.50;69.30;;;;;;5020839;28;20427;-81
2023/04/14 01:25:48;;;;;;;6.43;1.70;;;5.50;75.90;;;;;;5016538;28;20444;-80
2023/04/14 01:28:37;;;;;;;6.90;2.00;;;5.50;86.60;;;;;;5015809;28;20445;-80
2023/04/14 01:31:17;;;;;;;4.67;2.43;;;5.50;59.90;;;;;;5014561;28;20430;-81
2023/04/14 01:33:50;;;;;;;6.20;1.90;;;5.50;91.70;;;;;;5015252;28;20449;-81
2023/04/14 01:36:26;;;;;;;6.27;1.37;;;5.50;96.20;;;;;;5012837;28;20503;-81
2023/04/14 01:38:54;;;;;;;4.23;1.77;;;5.50;99.90;;;;;;5016292;28;20452;-81
2023/04/14 01:41:22;;;;;;;5.97;3.50;;;5.50;97.50;;;;;;5013749;28;20448;-81
2023/04/14 01:43:53;;;;;;;4.43;1.80;;;5.60;99.80;;;;;;5014801;28;20549;-80
2023/04/14 01:46:22;;;;;;;6.40;2.07;;;5.60;99.90;;;;;;5014248;28;20548;-80
2023/04/14 01:48:49;;;;;;;4.47;1.83;;;5.60;99.90;;;;;;5015618;28;21052;-80
2023/04/14 01:51:19;;;;;;;4.30;2.33;;;5.70;99.90;;;;;;5014607;28;20902;-80
2023/04/14 01:53:48;;;;;;;6.43;1.87;;;5.70;97.50;;;;;;5014629;28;20451;-81
2023/04/14 01:56:16;;;;;;;4.70;2.13;;;5.70;99.90;;;;;;5017058;28;20494;-80
2023/04/14 01:58:45;;;;;;;6.10;2.33;;;5.70;94.90;;;;;;5018961;28;20456;-81
2023/04/14 02:01:12;;;;;;;4.20;2.13;;;5.80;99.90;;;;;;5009671;28;20981;-81
2023/04/14 02:03:41;;;;;;;4.03;1.80;;;5.90;99.90;;;;;;5018248;28;20492;-80
2023/04/14 02:06:10;;;;;;;4.70;3.23;;;6.00;93.50;;;;;;5018149;28;20559;-81
2023/04/14 02:08:40;;;;;;;5.67;2.13;;;6.00;86.60;;;;;;5018905;28;20452;-81
2023/04/14 02:11:08;;;;;;;6.70;2.00;;;6.10;90.50;;;;;;5018711;28;20452;-80
2023/04/14 02:13:37;;;;;;;5.33;2.10;;;6.20;75.30;;;;;;5018626;28;20497;-80
2023/04/14 02:16:05;;;;;;;3.87;1.60;;;6.20;68.70;;;;;;5018008;28;20557;-81
2023/04/14 02:18:32;;;;;;;3.13;1.70;;;6.30;52.70;;;;;;5017840;28;20460;-81
2023/04/14 02:21:03;;;;;;;4.40;2.27;;;6.40;38.30;;;;;;5018077;28;20870;-81
2023/04/14 02:23:31;;;;;;;6.67;2.10;;;6.40;23.10;;;;;;5029948;28;20456;-80
2023/04/14 02:26:02;;;;;;;3.70;1.83;;;6.40;15.90;;;;;;5031442;28;20559;-79
2023/04/14 02:28:33;;;;;;;4.03;1.77;;;6.40;12.20;;;;;;5029296;28;20451;-79
2023/04/14 02:31:05;;;;;;;4.50;2.17;;;6.40;11.30;;;;;;5021145;28;20453;-80
2023/04/14 02:33:35;;;;;;;5.60;1.90;;;6.40;1.00;;;;;;5020265;28;20509;-80
2023/04/14 02:36:06;;;;;;;2.63;1.57;;;6.40;1.00;;;;;;5020077;28;20916;-80
2023/04/14 02:38:37;;;;;;;8.67;2.17;;;6.40;1.00;;;;;;5020365;28;20459;-81
2023/04/14 02:41:08;;;;;;;5.00;2.03;;;6.30;1.00;;;;;;5019623;28;20445;-81
2023/04/14 02:43:44;;;;;;;6.60;2.23;;;6.30;6.10;;;;;;5020494;28;20452;-81
2023/04/14 02:46:14;;;;;;;7.43;2.27;;;6.30;7.50;;;;;;5020374;28;20908;-80
2023/04/14 02:48:42;;;;;;;5.00;2.60;;;6.20;1.50;;;;;;5020275;28;20456;-80
2023/04/14 02:51:13;;;;;;;12.47;2.60;;;6.20;1.40;;;;;;5018352;28;20466;-81
2023/04/14 02:53:40;;;;;;;9.67;3.90;;;6.10;1.00;;;;;;5020497;28;20817;-81
2023/04/14 02:56:08;;;;;;;3.23;2.13;;;6.00;2.10;;;;;;5019916;28;20509;-81
2023/04/14 02:58:35;;;;;;;9.20;3.00;;;5.90;1.60;;;;;;5018133;28;20538;-80
2023/04/14 03:01:02;;;;;;;4.20;2.17;;;5.90;14.00;;;;;;5018565;28;20467;-80
2023/04/14 03:03:30;;;;;;;5.47;2.30;;;5.80;11.70;;;;;;5019173;28;20970;-80
2023/04/14 03:05:57;;;;;;;6.73;2.67;;;5.70;22.40;;;;;;5019007;28;20479;-81
2023/04/14 03:08:27;;;;;;;4.57;1.90;;;5.70;36.30;;;;;;5016511;28;20491;-80
2023/04/14 03:10:55;;;;;;;5.70;1.90;;;5.60;40.60;;;;;;5018328;28;20784;-81
2023/04/14 03:13:26;;;;;;;4.77;2.03;;;5.60;43.50;;;;;;5018447;28;20460;-81
2023/04/14 03:15:53;;;;;;;5.70;2.00;;;5.60;49.70;;;;;;5018511;28;21050;-81
2023/04/14 03:18:21;;;;;;;4.87;1.90;;;5.60;53.90;;;;;;5020093;28;20419;-80
2023/04/14 03:20:50;;;;;;;10.20;3.23;;;5.60;84.80;;;;;;5018784;28;20459;-81
2023/04/14 03:23:20;;;;;;;5.83;2.27;;;5.60;78.50;;;;;;5019131;28;20482;-80
2023/04/14 03:25:49;;;;;;;4.23;2.10;;;5.60;78.00;;;;;;5020182;28;20839;-80
2023/04/14 03:28:21;;;;;;;4.37;1.93;;;5.60;89.90;;;;;;5018531;28;20441;-79
2023/04/14 03:30:52;;;;;;;4.47;1.80;;;5.60;93.80;;;;;;5017592;28;20453;-79
2023/04/14 03:33:24;;;;;;;6.53;2.43;;;5.50;94.80;;;;;;5019031;28;20514;-80
2023/04/14 03:35:54;;;;;;;10.13;2.70;;;5.50;96.70;;;;;;5018913;28;20552;-81
2023/04/14 03:38:22;;;;;;;4.40;1.70;;;5.50;96.70;;;;;;5019440;28;20454;-82
2023/04/14 03:40:51;;;;;;;3.70;1.93;;;5.40;95.60;;;;;;5018178;28;20836;-81
2023/04/14 03:43:21;;;;;;;4.00;2.40;;;5.40;97.20;;;;;;5018872;28;20558;-80
2023/04/14 03:45:49;;;;;;;4.53;2.33;;;5.40;97.40;;;;;;5017879;28;20505;-81
2023/04/14 03:48:18;;;;;;;6.00;1.80;;;5.40;95.80;;;;;;5015679;28;20438;-81
2023/04/14 03:50:48;;;;;;;9.77;2.40;;;5.30;95.80;;;;;;5007878;28;20430;-81
2023/04/14 03:53:18;;;;;;;7.30;2.33;;;5.30;98.20;;;;;;5015276;28;20434;-80
2023/04/14 03:55:46;;;;;;;4.83;2.60;;;5.30;99.90;;;;;;5020882;28;20452;-80
2023/04/14 03:58:16;;;;;;;7.57;2.30;;;5.20;97.30;;;;;;5017694;28;20438;-81
2023/04/14 04:00:44;;;;;;;6.30;2.43;;;5.20;99.90;;;;;;5017965;28;21099;-81
2023/04/14 04:03:12;;;;;;;4.57;2.20;;;5.20;99.90;;;;;;5018109;28;20542;-81
2023/04/14 04:05:40;;;;;;;4.33;1.97;;;5.20;99.90;;;;;;5018514;28;20569;-81
2023/04/14 04:08:09;;;;;;;8.90;2.47;;;5.20;99.90;;;;;;5017831;28;20429;-81
2023/04/14 04:10:37;;;;;;;7.40;2.03;;;5.20;99.90;;;;;;5018522;28;20440;-80
2023/04/14 04:13:08;;;;;;;6.00;2.03;;;5.20;99.90;;;;;;5018633;28;20433;-81
2023/04/14 04:15:38;;;;;;;4.93;1.87;;;5.30;99.90;;;;;;5019810;28;21261;-81
2023/04/14 04:18:07;;;;;;;4.83;2.33;;;5.30;99.90;;;;;;5017727;28;20448;-82
2023/04/14 04:20:37;;;;;;;4.40;2.43;;;5.30;99.90;;;;;;5010029;28;20437;-79
2023/04/14 04:23:06;;;;;;;6.33;2.13;;;5.40;99.90;;;;;;5017938;28;20462;-81
2023/04/14 04:25:35;;;;;;;4.67;2.40;;;5.50;99.90;;;;;;5003572;28;20533;-81
2023/04/14 04:28:02;;;;;;;4.60;2.13;;;5.50;99.90;;;;;;5016968;28;20943;-81
2023/04/14 04:30:31;;;;;;;8.03;2.63;;;5.60;99.90;;;;;;5015163;28;20994;-79
2023/04/14 04:33:02;;;;;;;4.33;1.93;;;5.60;99.90;;;;;;5016488;28;20459;-81
2023/04/14 04:35:29;;;;;;;5.60;1.73;;;5.60;99.90;;;;;;5015268;28;20982;-80
2023/04/14 04:37:59;;;;;;;3.20;2.00;;;5.70;99.90;;;;;;5016255;28;20494;-81
2023/04/14 04:40:26;;;;;;;3.80;1.90;;;5.70;99.90;;;;;;5016344;28;20487;-81
2023/04/14 04:42:53;;;;;;;5.13;1.90;;;5.70;99.90;;;;;;5015493;28;20486;-81
2023/04/14 04:45:43;;;;;;;4.70;1.70;;;5.70;99.90;;;;;;5016866;28;21830;-82
2023/04/14 04:48:12;;;;;;;4.60;2.13;;;5.70;99.90;;;;;;5016083;28;20450;-83
2023/04/14 04:50:38;;;;;;;6.57;2.97;;;5.70;99.90;;;;;;5013911;28;20937;-83
2023/04/14 04:53:05;;;;;;;8.50;2.60;;;5.70;99.90;;;;;;5014075;28;20451;-83
2023/04/14 04:55:32;;;;;;;4.83;2.60;;;5.70;99.90;;;;;;5014847;28;20485;-82
2023/04/14 04:57:59;;;;;;;5.70;2.47;;;5.70;99.90;;;;;;5016616;28;20490;-81
2023/04/14 05:00:26;;;;;;;4.70;2.70;;;5.70;99.90;;;;;;5016631;28;20435;-82
2023/04/14 05:02:52;;;;;;;9.20;2.30;;;5.70;92.10;;;;;;5016850;28;20531;-81
2023/04/14 05:05:21;;;;;;;8.90;3.10;;;5.70;99.90;;;;;;5016115;28;20444;-82
2023/04/14 05:07:47;;;;;;;10.43;4.67;;;5.70;99.90;;;;;;5013978;28;20547;-83
2023/04/14 05:10:14;;;;;;;6.70;3.33;;;5.70;99.90;;;;;;5010240;28;20456;-82
2023/04/14 05:12:41;;;;;;;11.23;3.67;;;5.70;97.40;;;;;;5014346;28;20435;-82
2023/04/14 05:15:08;;;;;;;4.97;2.47;;;5.80;99.90;;;;;;5017804;28;20482;-82
2023/04/14 05:17:35;;;;;;;6.47;2.80;;;5.70;97.70;;;;;;5015202;28;21967;-81
2023/04/14 05:20:02;;;;;;;7.90;3.13;;;5.70;99.90;;;;;;5010502;28;20477;-82
2023/04/14 05:22:32;;;;;;;11.87;2.60;;;5.80;99.90;;;;;;5009972;28;20569;-82
2023/04/14 05:24:59;;;;;;;5.60;2.53;;;5.80;99.90;;;;;;5015140;28;20456;-81
2023/04/14 05:27:25;;;;;;;5.80;2.80;;;5.80;99.90;;;;;;5016939;28;20979;-82
2023/04/14 05:29:52;;;;;;;8.23;3.20;;;5.80;99.90;;;;;;5013856;28;20829;-82
2023/04/14 05:32:20;;;;;;;7.93;2.87;;;5.80;99.90;;;;;;5018856;28;20524;-81
2023/04/14 05:34:47;;;;;;;4.87;2.77;;;5.90;99.90;;;;;;5018058;28;20462;-81
2023/04/14 05:37:14;;;;;;;4.80;2.10;;;6.00;99.90;;;;;;5019387;28;20516;-82
2023/04/14 05:39:42;;;;;;;9.10;3.07;;;6.10;99.90;;;;;;5015955;28;20439;-82
2023/04/14 05:42:08;;;;;;;9.43;3.30;;;6.20;99.90;;;;;;5015134;28;20459;-82
2023/04/14 05:44:35;;;;;;;5.43;2.63;;;6.40;99.90;;;;;;5018054;28;20457;-80
2023/04/14 05:47:02;;;;;;;4.20;2.20;;;6.60;99.90;;;;;;5019003;28;20915;-82
2023/04/14 05:49:29;;;;;;;5.17;3.10;;;6.70;99.90;;;;;;5019269;28;20455;-83
2023/04/14 05:51:56;;;;;;;7.17;2.90;;;6.80;91.40;;;;;;5019903;28;20887;-84
2023/04/14 05:54:22;;;;;;;5.90;2.67;;;6.80;76.80;;;;;;5020266;28;20461;-84
2023/04/14 05:56:51;;;;;;;7.50;2.80;;;6.90;61.00;;;;;;5019947;28;20494;-82
2023/04/14 05:59:17;;;;;;;17.10;3.77;;;6.80;29.90;;;;;;5020660;28;20462;-83
2023/04/14 06:01:44;;;;;;;6.57;4.00;;;6.90;1.00;;;;;;5021369;28;20526;-83
2023/04/14 06:04:11;;;;;;;8.83;3.03;;;7.00;1.00;;;;;;5020531;28;20980;-82
2023/04/14 06:06:38;;;;;;;7.97;2.97;;;7.00;1.00;;;;;;5018872;28;20984;-84
2023/04/14 06:09:05;;;;;;;6.00;3.40;;;7.10;1.00;;;;;;5017089;28;20504;-82
2023/04/14 06:11:32;;;;;;;9.00;3.07;;;7.20;1.00;;;;;;5015372;28;20888;-80
2023/04/14 06:14:01;;;;;;;7.63;2.90;;;7.20;99.90;;;;;;5018560;28;20465;-82
2023/04/14 06:16:28;;;;;;;6.70;2.77;;;7.30;20.10;;;;;;5020400;28;20981;-83
2023/04/14 06:18:55;;;;;;;8.70;2.87;;;7.50;99.90;;;;;;5019917;28;20576;-84
2023/04/14 06:21:21;;;;;;;4.83;2.63;;;7.60;1.00;;;;;;5019977;28;20456;-83
2023/04/14 06:23:48;;;;;;;6.20;2.90;;;7.70;99.90;;;;;;5019709;28;20467;-82
2023/04/14 06:26:15;;;;;;;7.60;3.07;;;7.80;1.00;;;;;;5019249;28;20480;-83
2023/04/14 06:28:42;;;;;;;7.63;3.20;;;7.90;99.90;;;;;;5020275;28;20481;-83
2023/04/14 06:31:10;;;;;;;14.50;3.63;;;7.90;99.90;;;;;;5019147;28;20804;-84
2023/04/14 06:33:37;;;;;;;6.70;2.93;;;8.00;1.00;;;;;;5011766;28;20450;-83
2023/04/14 06:36:04;;;;;;;8.90;3.03;;;8.10;99.90;;;;;;5014764;28;20473;-81
2023/04/14 06:38:31;;;;;;;7.90;2.80;;;8.10;26.50;;;;;;5014159;28;20525;-84
2023/04/14 06:40:57;;;;;;;6.80;2.67;;;8.10;99.90;;;;;;5017549;28;20541;-85
2023/04/14 06:43:24;;;;;;;6.53;2.67;;;8.30;99.90;;;;;;5018775;28;20490;-85
2023/04/14 06:45:51;;;;;;;9.00;3.23;;;8.30;99.90;;;;;;5019290;28;20561;-84
2023/04/14 06:48:19;;;;;;;6.37;2.67;;;8.40;99.90;;;;;;5019337;28;20496;-85
2023/04/14 06:50:53;;;;;;;6.33;2.80;;;8.40;99.90;;;;;;5019310;28;20455;-84
2023/04/14 06:53:20;;;;;;;5.53;2.93;;;8.40;39.70;;;;;;5014919;28;20452;-82
2023/04/14 06:55:48;;;;;;;12.57;2.70;;;8.60;1.00;;;;;;5017484;28;21073;-85
2023/04/14 06:58:15;;;;;;;8.40;3.20;;;8.70;1.00;;;;;;5017896;28;20568;-85
2023/04/14 07:00:42;;;;;;;5.70;3.00;;;8.80;99.90;;;;;;5018854;28;20465;-84
2023/04/14 07:03:08;;;;;;;7.13;3.07;;;8.80;99.90;;;;;;5019405;28;20545;-83
2023/04/14 07:05:36;;;;;;;5.23;2.60;;;8.80;99.90;;;;;;5019559;28;20474;-84
2023/04/14 07:08:04;;;;;;;6.63;2.70;;;8.80;1.00;;;;;;5021075;28;21050;-84
2023/04/14 07:10:30;;;;;;;5.00;2.53;;;8.90;99.90;;;;;;5018827;28;20459;-82
2023/04/14 07:12:57;;;;;;;6.10;2.80;;;9.00;99.90;;;;;;5019234;28;20451;-85
2023/04/14 07:15:24;;;;;;;3.90;1.93;;;9.10;1.00;;;;;;5019513;28;20487;-84
2023/04/14 07:17:51;;;;;;;9.40;2.60;;;9.20;1.00;;;;;;5020198;28;20481;-85
2023/04/14 07:20:18;;;;;;;5.00;2.50;;;9.30;1.00;;;;;;5018552;28;20460;-85
2023/04/14 07:22:46;;;;;;;7.60;2.70;;;9.40;1.00;;;;;;5018528;28;20463;-85
2023/04/14 07:25:13;;;;;;;6.77;2.37;;;9.50;1.00;;;;;;5017620;28;20462;-84
2023/04/14 07:27:40;;;;;;;6.83;2.77;;;9.70;1.00;;;;;;5019659;28;20542;-85
2023/04/14 07:30:08;;;;;;;9.00;2.47;;;10.00;99.90;;;;;;5017669;28;20546;-86
2023/04/14 07:32:35;;;;;;;8.00;2.70;;;10.20;99.90;;;;;;5016416;28;20460;-85
2023/04/14 07:35:02;;;;;;;7.50;2.10;;;10.40;99.90;;;;;;5020338;28;20458;-84
2023/04/14 07:37:29;;;;;;;6.40;2.83;;;10.50;99.90;;;;;;5018536;28;20495;-84
2023/04/14 07:39:58;;;;;;;7.33;2.83;;;10.70;94.90;;;;;;5018361;28;20986;-85
2023/04/14 07:42:25;;;;;;;7.20;2.90;;;10.90;1.00;;;;;;5018463;28;20997;-85
2023/04/14 07:44:52;;;;;;;7.63;2.83;;;11.10;1.00;;;;;;5016986;28;20540;-84
2023/04/14 07:47:18;;;;;;;10.77;1.90;;;11.10;1.00;;;;;;5017032;28;20564;-85
2023/04/14 07:49:45;;;;;;;11.40;3.97;;;11.20;1.00;;;;;;5015495;28;20903;-85
2023/04/14 07:52:12;;;;;;;8.67;2.73;;;11.50;1.00;;;;;;5014720;28;20457;-85
2023/04/14 07:54:39;;;;;;;13.40;3.07;;;11.90;1.00;;;;;;5016604;28;20505;-85
2023/04/14 07:57:09;;;;;;;7.30;2.20;;;12.40;1.00;;;;;;5016302;28;20506;-85
2023/04/14 07:59:37;;;;;;;7.13;2.10;;;12.60;1.00;;;;;;5016221;28;20502;-84
2023/04/14 08:02:04;;;;;;;8.27;3.20;;;12.80;1.00;;;;;;5012586;28;20458;-84
2023/04/14 08:04:33;;;;;;;4.53;1.87;;;12.40;1.00;;;;;;5016670;28;20460;-84
2023/04/14 08:07:00;;;;;;;6.37;3.00;;;12.50;1.00;;;;;;5012998;28;20480;-82
2023/04/14 08:09:27;;;;;;;9.43;2.53;;;12.50;1.00;;;;;;5016659;28;20458;-84
2023/04/14 08:11:53;;;;;;;7.60;2.07;;;12.60;1.00;;;;;;5014846;28;20468;-85
2023/04/14 08:14:21;;;;;;;5.00;2.80;;;13.00;1.00;;;;;;5014322;28;20978;-85
2023/04/14 08:16:48;;;;;;;4.53;2.60;;;13.30;99.90;;;;;;5016294;28;20485;-86
2023/04/14 08:19:15;;;;;;;6.53;2.00;;;13.70;99.90;;;;;;5015293;28;20490;-85
2023/04/14 08:21:42;;;;;;;5.53;2.43;;;14.60;99.90;;;;;;5013907;28;20484;-86
2023/04/14 08:24:09;;;;;;;6.93;2.10;;;15.00;99.90;;;;;;5008678;28;20497;-85
2023/04/14 08:26:36;;;;;;;8.57;2.80;;;15.30;99.90;;;;;;5012838;28;20943;-84
2023/04/14 08:29:02;;;;;;;6.10;2.40;;;15.80;99.90;;;;;;5013842;28;20536;-86
2023/04/14 08:31:31;;;;;;;2.90;1.67;;;16.50;99.90;;;;;;5013799;28;20580;-85
2023/04/14 08:33:59;;;;;;;4.60;2.33;;;17.30;99.90;;;;;;5013017;28;20468;-85
2023/04/14 08:36:26;;;;;;;6.57;2.20;;;19.20;99.90;;;;;;5015209;28;20473;-85
2023/04/14 08:38:53;;;;;;;5.73;2.10;;;20.30;99.90;;;;;;5013911;28;20492;-85
2023/04/14 08:41:21;;;;;;;5.97;2.30;;;21.40;99.90;;;;;;5010340;28;20463;-85
2023/04/14 08:43:47;;;;;;;6.13;1.90;;;22.10;99.90;;;;;;5017917;28;20513;-84
2023/04/14 08:46:15;;;;;;;8.20;2.33;;;22.40;99.90;;;;;;5015043;28;20469;-85
2023/04/14 08:48:46;;;;;;;5.97;2.10;;;23.00;99.90;;;;;;5015484;28;20458;-86
2023/04/14 08:51:18;;;;;;;5.50;1.83;;;24.30;99.90;;;;;;5014663;28;20809;-86
2023/04/14 08:53:50;;;;;;;6.13;1.77;;;24.70;99.90;;;;;;5013151;28;20482;-84
2023/04/14 08:56:18;;;;;;;6.93;2.10;;;25.80;99.90;;;;;;5015675;28;20473;-86
2023/04/14 08:58:46;;;;;;;8.50;2.13;;;26.00;99.90;;;;;;5017435;28;20557;-85
2023/04/14 09:01:13;;;;;;;6.73;2.40;;;25.30;99.90;;;;;;5011201;28;20460;-84
2023/04/14 09:03:40;;;;;;;6.07;2.33;;;25.80;99.90;;;;;;5013082;28;20485;-86
2023/04/14 09:06:09;;;;;;;5.60;2.17;;;25.80;99.90;;;;;;5014640;28;20588;-86
2023/04/14 09:08:36;;;;;;;7.33;2.10;;;25.90;99.90;;;;;;5013954;28;20520;-85
2023/04/14 09:11:04;;;;;;;5.20;1.67;;;25.70;99.90;;;;;;5013814;28;20906;-85
2023/04/14 09:13:31;;;;;;;7.07;2.33;;;27.30;99.90;;;;;;5013983;28;20976;-85
2023/04/14 09:15:58;;;;;;;6.47;2.67;;;26.00;99.90;;;;;;5017398;28;21043;-86
2023/04/14 09:18:26;;;;;;;6.00;2.23;;;26.10;99.90;;;;;;5013526;28;20489;-85
2023/04/14 09:20:53;;;;;;;5.07;1.93;;;26.70;99.90;;;;;;5013668;28;20469;-86
2023/04/14 09:23:22;;;;;;;5.40;2.10;;;26.60;99.90;;;;;;5016331;28;20484;-85
2023/04/14 09:25:48;;;;;;;5.23;1.93;;;25.60;99.90;;;;;;5010579;28;20582;-83
2023/04/14 09:28:18;;;;;;;4.00;2.00;;;25.80;99.90;;;;;;5017630;28;20517;-84
2023/04/14 09:30:45;;;;;;;7.20;2.37;;;27.40;99.90;;;;;;5015375;28;20453;-84
2023/04/14 09:33:20;;;;;;;6.10;2.47;;;27.10;99.90;;;;;;5020036;28;20458;-83
2023/04/14 09:35:49;;;;;;;7.13;2.10;;;27.60;99.90;;;;;;5020281;28;21181;-84
2023/04/14 09:38:31;;;;;;;6.10;2.80;;;28.60;99.90;;;;;;5020740;28;20491;-84
2023/04/14 09:41:00;;;;;;;7.67;2.30;;;27.50;99.90;;;;;;5012553;28;20448;-84
2023/04/14 09:43:28;;;;;;;4.30;2.20;;;28.50;99.90;;;;;;5020084;28;20454;-85
2023/04/14 09:45:55;;;;;;;6.43;2.00;;;28.20;99.90;;;;;;5016547;28;21043;-85
2023/04/14 09:48:23;;;;;;;7.27;2.20;;;28.00;99.90;;;;;;5020606;28;20456;-85
2023/04/14 09:50:57;;;;;;;6.20;2.67;;;27.00;99.90;;;;;;5014312;28;20469;-85
2023/04/14 09:53:29;;;;;;;8.00;2.13;;;24.90;99.90;;;;;;4998317;28;20454;-85
2023/04/14 09:55:56;;;;;;;11.80;6.13;;;23.80;99.90;;;;;;5021767;28;20858;-85
2023/04/14 09:58:24;;;;;;;6.63;3.63;;;25.30;99.90;;;;;;5014914;28;20497;-86
2023/04/14 10:00:51;;;;;;;5.30;2.03;;;27.00;99.90;;;;;;5027751;28;20862;-86
2023/04/14 10:03:33;;;;;;;5.77;1.97;;;26.90;99.90;;;;;;5017933;28;20458;-86
2023/04/14 10:06:00;;;;;;;5.57;2.00;;;26.80;99.90;;;;;;5020213;28;20483;-83
2023/04/14 10:08:35;;;;;;;6.77;2.17;;;26.70;99.90;;;;;;5024608;28;20450;-86
2023/04/14 10:11:17;;;;;;;4.20;1.70;;;27.10;99.90;;;;;;5028046;28;20448;-84
2023/04/14 10:13:47;;;;;;;7.00;2.47;;;24.90;99.90;;;;;;5028041;28;20493;-86
2023/04/14 10:16:14;;;;;;;5.33;1.77;;;25.60;99.90;;;;;;5020767;28;20571;-85
2023/04/14 10:18:41;;;;;;;6.87;2.10;;;25.30;99.90;;;;;;5024338;28;20520;-85
2023/04/14 10:21:09;;;;;;;5.93;2.40;;;25.90;99.90;;;;;;5026371;28;20456;-86
2023/04/14 10:23:38;;;;;;;7.93;2.40;;;27.30;99.90;;;;;;5025629;28;20465;-85
2023/04/14 10:26:06;;;;;;;4.97;1.90;;;28.30;99.90;;;;;;5016074;28;20461;-85
2023/04/14 10:28:35;;;;;;;5.63;2.07;;;30.70;99.90;;;;;;5023419;28;20462;-85
2023/04/14 10:31:09;;;;;;;5.70;2.10;;;31.40;99.90;;;;;;5022793;28;20969;-85
2023/04/14 10:33:38;;;;;;;7.07;1.63;;;31.30;99.90;;;;;;5013161;28;20863;-85
2023/04/14 10:36:05;;;;;;;4.50;1.63;;;31.10;99.90;;;;;;5021857;28;20477;-85
2023/04/14 10:38:41;;;;;;;4.63;1.67;;;32.60;99.90;;;;;;5021095;28;20508;-85
2023/04/14 10:41:11;;;;;;;4.20;1.67;;;33.00;99.90;;;;;;5023768;28;20461;-86
2023/04/14 10:43:38;;;;;;;3.60;1.70;;;33.80;99.90;;;;;;5022898;28;20438;-86
2023/04/14 10:46:09;;;;;;;6.50;2.60;;;32.10;99.90;;;;;;5022784;28;21009;-86
2023/04/14 10:48:38;;;;;;;3.20;1.50;;;31.60;99.90;;;;;;5020113;28;20532;-85
2023/04/14 10:51:08;;;;;;;7.20;2.43;;;30.60;99.90;;;;;;5021343;28;20556;-85
2023/04/14 10:53:39;;;;;;;4.77;2.17;;;29.80;99.90;;;;;;5022815;28;20985;-85
2023/04/14 10:56:06;;;;;;;5.77;1.70;;;28.30;99.90;;;;;;5023260;28;20552;-85
2023/04/14 10:58:37;;;;;;;4.77;1.80;;;26.90;99.90;;;;;;5021291;28;20565;-85
2023/04/14 11:01:26;;;;;;;6.73;2.17;;;24.40;99.90;;;;;;5022069;28;20453;-85
2023/04/14 11:03:54;;;;;;;5.80;2.20;;;24.50;99.90;;;;;;5022161;28;20996;-85
2023/04/14 11:06:51;;;;;;;5.07;1.80;;;26.90;99.90;;;;;;5022131;28;20477;-85
2023/04/14 11:09:32;;;;;;;5.10;1.90;;;29.20;99.90;;;;;;5020673;28;20897;-86
2023/04/14 11:12:05;;;;;;;4.93;1.80;;;31.00;99.90;;;;;;5023105;28;20481;-85
2023/04/14 11:14:34;;;;;;;4.33;1.77;;;31.20;99.90;;;;;;5020727;28;20548;-86
2023/04/14 11:17:04;;;;;;;3.30;1.93;;;31.80;99.90;;;;;;5019513;28;20473;-85
2023/04/14 11:19:32;;;;;;;6.07;1.80;;;32.60;99.90;;;;;;5021674;28;20548;-88
2023/04/14 11:21:59;;;;;;;3.70;2.10;;;33.50;99.90;;;;;;5018654;28;20454;-88
2023/04/14 11:24:28;;;;;;;6.43;1.83;;;33.00;99.90;;;;;;5018483;28;20993;-86
2023/04/14 11:26:55;;;;;;;4.70;1.77;;;30.50;99.90;;;;;;5015238;28;20489;-85
2023/04/14 11:29:23;;;;;;;3.40;1.87;;;27.00;99.90;;;;;;5017799;28;20491;-87
2023/04/14 11:32:05;;;;;;;5.03;1.97;;;26.20;99.90;;;;;;5015424;28;20552;-85
2023/04/14 11:34:33;;;;;;;4.00;1.80;;;24.70;99.90;;;;;;5018582;28;20873;-86
2023/04/14 11:37:02;;;;;;;3.63;1.30;;;23.60;99.90;;;;;;5019124;28;20847;-85
2023/04/14 11:39:29;;;;;;;6.23;1.77;;;22.50;99.90;;;;;;5017177;28;20445;-85
2023/04/14 11:41:59;;;;;;;4.37;1.23;;;22.30;99.90;;;;;;5029664;28;20508;-84
2023/04/14 11:44:25;;;;;;;5.13;1.70;;;24.50;99.90;;;;;;5024520;28;20453;-84
2023/04/14 11:46:53;;;;;;;4.07;1.57;;;25.40;99.90;;;;;;5021020;28;20466;-84
2023/04/14 11:49:33;;;;;;;3.63;1.47;;;24.50;99.90;;;;;;5018832;28;20549;-84
2023/04/14 11:52:07;;;;;;;5.60;1.60;;;24.00;99.90;;;;;;5021348;28;20523;-83
2023/04/14 11:54:38;;;;;;;4.77;1.53;;;24.90;99.90;;;;;;5008170;28;20545;-84
2023/04/14 11:57:10;;;;;;;4.13;1.90;;;27.90;99.90;;;;;;5021826;28;20485;-84
2023/04/14 11:59:42;;;;;;;5.73;1.50;;;29.60;99.90;;;;;;5022861;28;20532;-83
2023/04/14 12:02:16;;;;;;;3.60;1.33;;;30.70;99.90;;;;;;5021901;28;20462;-84
2023/04/14 12:04:48;;;;;;;2.70;1.60;;;31.90;99.90;;;;;;5020569;28;20461;-85
2023/04/14 12:07:17;;;;;;;4.63;1.70;;;29.30;99.90;;;;;;5021008;28;20500;-85
2023/04/14 12:09:45;;;;;;;4.23;1.40;;;28.80;99.90;;;;;;5016791;28;20589;-85
2023/04/14 12:12:13;;;;;;;3.37;1.47;;;27.30;99.90;;;;;;5016334;28;20438;-85
2023/04/14 12:14:44;;;;;;;4.40;1.70;;;25.90;99.90;;;;;;5018056;28;20444;-84
2023/04/14 12:17:12;;;;;;;3.03;1.40;;;24.50;99.90;;;;;;4998507;28;21018;-83
2023/04/14 12:19:39;;;;;;;5.60;1.67;;;23.30;99.90;;;;;;5017470;28;20496;-84
2023/04/14 12:22:08;;;;;;;3.27;1.17;;;22.60;99.90;;;;;;5016242;28;20460;-84
2023/04/14 12:24:36;;;;;;;3.70;1.47;;;22.30;99.90;;;;;;5016431;28;20972;-82
2023/04/14 12:27:05;;;;;;;4.37;1.40;;;22.10;99.90;;;;;;5017067;28;20488;-83
2023/04/14 12:29:33;;;;;;;3.57;1.83;;;21.80;99.90;;;;;;5016108;28;20563;-83
2023/04/14 12:32:01;;;;;;;4.10;1.30;;;21.80;99.90;;;;;;5017008;28;20481;-83
2023/04/14 12:34:30;;;;;;;4.37;1.77;;;21.30;99.90;;;;;;5018305;28;20461;-83
2023/04/14 12:36:57;;;;;;;3.90;1.93;;;20.70;99.90;;;;;;5017571;28;20877;-84
2023/04/14 12:39:27;;;;;;;5.33;1.83;;;20.10;99.90;;;;;;5017566;28;20805;-82
2023/04/14 12:41:57;;;;;;;5.17;1.80;;;19.60;99.90;;;;;;5016765;28;20481;-83
2023/04/14 12:44:24;;;;;;;4.00;1.60;;;19.20;99.90;;;;;;5012353;28;20456;-82
2023/04/14 12:46:53;;;;;;;3.97;1.40;;;18.50;99.90;;;;;;5016529;28;21000;-84
2023/04/14 12:49:30;;;;;;;5.87;2.20;;;18.50;99.90;;;;;;5016190;28;20537;-83
2023/04/14 12:52:00;;;;;;;3.17;1.23;;;18.50;99.90;;;;;;5008440;28;20456;-83
2023/04/14 12:54:46;;;;;;;5.57;2.00;;;18.40;99.90;;;;;;5014113;28;20444;-84
2023/04/14 12:57:13;;;;;;;5.67;1.67;;;18.50;99.90;;;;;;5016638;28;20473;-83
2023/04/14 12:59:40;;;;;;;3.20;1.50;;;18.70;99.90;;;;;;5016265;28;20477;-83
2023/04/14 13:02:07;;;;;;;3.60;1.30;;;19.40;99.90;;;;;;5017458;28;20461;-83
2023/04/14 13:04:34;;;;;;;4.37;1.57;;;20.10;99.90;;;;;;5019456;28;20454;-84